createdAt,value
2019-01-04T00:00:05.036Z,927.52
2019-01-04T00:00:18.074Z,927.54
2019-01-04T00:00:31.059Z,927.55
2019-01-04T00:00:44.051Z,927.54
2019-01-04T00:00:56.997Z,927.51
2019-01-04T00:01:10.012Z,927.54
2019-01-04T00:01:23.063Z,927.56
2019-01-04T00:01:35.603Z,927.55
2019-01-04T00:01:48.538Z,927.53
2019-01-04T00:02:01.591Z,927.57
2019-01-04T00:02:14.672Z,927.56
2019-01-04T00:02:27.616Z,927.56
2019-01-04T00:02:40.689Z,927.58
2019-01-04T00:02:53.696Z,927.57
2019-01-04T00:03:06.659Z,927.56
2019-01-04T00:03:20.399Z,927.53
2019-01-04T00:03:33.408Z,927.55
2019-01-04T00:03:46.407Z,927.54
2019-01-04T00:03:59.364Z,927.56
2019-01-04T00:04:12.374Z,927.58
2019-01-04T00:04:25.392Z,927.57
2019-01-04T00:04:38.454Z,927.57
2019-01-04T00:04:51.498Z,927.57
2019-01-04T00:05:04.668Z,927.58
2019-01-04T00:05:17.679Z,927.58
2019-01-04T00:05:30.731Z,927.58
2019-01-04T00:05:43.786Z,927.58
2019-01-04T00:05:56.787Z,927.58
2019-01-04T00:06:09.854Z,927.58
2019-01-04T00:06:22.831Z,927.58
2019-01-04T00:06:35.837Z,927.56
2019-01-04T00:06:48.855Z,927.56
2019-01-04T00:07:01.885Z,927.58
2019-01-04T00:07:14.906Z,927.57
2019-01-04T00:07:27.927Z,927.62
2019-01-04T00:07:40.917Z,927.59
2019-01-04T00:07:53.918Z,927.6
2019-01-04T00:08:06.852Z,927.59
2019-01-04T00:08:19.995Z,927.57
2019-01-04T00:08:32.999Z,927.62
2019-01-04T00:08:45.999Z,927.61
2019-01-04T00:08:59.002Z,927.61
2019-01-04T00:09:12.888Z,927.56
2019-01-04T00:09:25.868Z,927.62
2019-01-04T00:09:38.855Z,927.6
2019-01-04T00:09:51.826Z,927.64
2019-01-04T00:10:04.820Z,927.63
2019-01-04T00:10:17.808Z,927.61
2019-01-04T00:10:30.816Z,927.61
2019-01-04T00:10:43.804Z,927.61
2019-01-04T00:10:56.751Z,927.59
2019-01-04T00:11:09.729Z,927.61
2019-01-04T00:11:22.630Z,927.64
2019-01-04T00:11:35.646Z,927.6
2019-01-04T00:11:48.635Z,927.62
2019-01-04T00:12:01.622Z,927.63
2019-01-04T00:12:14.611Z,927.59
2019-01-04T00:12:27.624Z,927.61
2019-01-04T00:12:40.635Z,927.59
2019-01-04T00:12:53.631Z,927.62
2019-01-04T00:13:06.601Z,927.62
2019-01-04T00:13:19.622Z,927.62
2019-01-04T00:13:32.217Z,927.6
2019-01-04T00:13:45.262Z,927.61
2019-01-04T00:13:58.254Z,927.56
2019-01-04T00:14:11.240Z,927.59
2019-01-04T00:14:24.246Z,927.57
2019-01-04T00:14:37.278Z,927.6
2019-01-04T00:14:50.338Z,927.6
2019-01-04T00:15:03.334Z,927.55
2019-01-04T00:15:16.262Z,927.59
2019-01-04T00:15:29.181Z,927.57
2019-01-04T00:15:42.228Z,927.54
2019-01-04T00:15:55.354Z,927.54
2019-01-04T00:16:08.335Z,927.55
2019-01-04T00:16:21.326Z,927.55
2019-01-04T00:16:34.407Z,927.55
2019-01-04T00:16:47.393Z,927.56
2019-01-04T00:17:00.407Z,927.54
2019-01-04T00:17:13.450Z,927.49
2019-01-04T00:17:26.476Z,927.54
2019-01-04T00:17:39.474Z,927.52
2019-01-04T00:17:52.497Z,927.53
2019-01-04T00:18:05.471Z,927.49
2019-01-04T00:18:18.438Z,927.49
2019-01-04T00:18:31.673Z,927.48
2019-01-04T00:18:44.647Z,927.5
2019-01-04T00:18:58.176Z,927.51
2019-01-04T00:19:11.125Z,927.49
2019-01-04T00:19:24.079Z,927.51
2019-01-04T00:19:37.092Z,927.5
2019-01-04T00:19:50.116Z,927.51
2019-01-04T00:20:03.093Z,927.51
2019-01-04T00:20:16.224Z,927.51
2019-01-04T00:20:29.289Z,927.51
2019-01-04T00:20:42.251Z,927.52
2019-01-04T00:20:55.285Z,927.51
2019-01-04T00:21:08.283Z,927.52
2019-01-04T00:21:21.254Z,927.49
2019-01-04T00:21:34.242Z,927.48
2019-01-04T00:21:47.242Z,927.52
2019-01-04T00:22:00.276Z,927.5
2019-01-04T00:22:13.222Z,927.49
2019-01-04T00:22:26.270Z,927.51
2019-01-04T00:22:39.247Z,927.48
2019-01-04T00:22:52.405Z,927.5
2019-01-04T00:23:05.376Z,927.5
2019-01-04T00:23:18.404Z,927.49
2019-01-04T00:23:31.371Z,927.51
2019-01-04T00:23:44.358Z,927.5
2019-01-04T00:23:57.298Z,927.5
2019-01-04T00:24:10.263Z,927.49
2019-01-04T00:24:23.258Z,927.51
2019-01-04T00:24:37.011Z,927.5
2019-01-04T00:24:50.048Z,927.5
2019-01-04T00:25:03.031Z,927.51
2019-01-04T00:25:15.941Z,927.45
2019-01-04T00:25:28.961Z,927.46
2019-01-04T00:25:41.928Z,927.47
2019-01-04T00:25:54.905Z,927.48
2019-01-04T00:26:07.483Z,927.5
2019-01-04T00:26:20.528Z,927.49
2019-01-04T00:26:33.541Z,927.46
2019-01-04T00:26:46.573Z,927.46
2019-01-04T00:26:59.535Z,927.47
2019-01-04T00:27:12.497Z,927.45
2019-01-04T00:27:25.475Z,927.46
2019-01-04T00:27:38.427Z,927.45
2019-01-04T00:27:51.455Z,927.48
2019-01-04T00:28:04.398Z,927.5
2019-01-04T00:28:17.326Z,927.5
2019-01-04T00:28:30.638Z,927.49
2019-01-04T00:28:43.592Z,927.48
2019-01-04T00:28:56.614Z,927.49
2019-01-04T00:29:09.598Z,927.48
2019-01-04T00:29:22.550Z,927.47
2019-01-04T00:29:35.488Z,927.51
2019-01-04T00:29:48.514Z,927.52
2019-01-04T00:30:01.549Z,927.52
2019-01-04T00:30:14.583Z,927.51
2019-01-04T00:30:27.608Z,927.51
2019-01-04T00:30:40.657Z,927.52
2019-01-04T00:30:53.679Z,927.52
2019-01-04T00:31:06.653Z,927.53
2019-01-04T00:31:19.619Z,927.54
2019-01-04T00:31:32.625Z,927.55
2019-01-04T00:31:45.620Z,927.54
2019-01-04T00:31:58.660Z,927.57
2019-01-04T00:32:11.729Z,927.56
2019-01-04T00:32:24.281Z,927.6
2019-01-04T00:32:37.256Z,927.57
2019-01-04T00:32:50.183Z,927.56
2019-01-04T00:33:02.728Z,927.56
2019-01-04T00:33:15.673Z,927.57
2019-01-04T00:33:29.456Z,927.54
2019-01-04T00:33:42.420Z,927.57
2019-01-04T00:33:55.342Z,927.59
2019-01-04T00:34:08.285Z,927.56
2019-01-04T00:34:21.245Z,927.59
2019-01-04T00:34:34.159Z,927.61
2019-01-04T00:34:47.084Z,927.61
2019-01-04T00:35:00.000Z,927.6
2019-01-04T00:35:12.974Z,927.6
2019-01-04T00:35:25.967Z,927.59
2019-01-04T00:35:38.913Z,927.6
2019-01-04T00:35:51.898Z,927.6
2019-01-04T00:36:04.848Z,927.6
2019-01-04T00:36:17.947Z,927.61
2019-01-04T00:36:30.970Z,927.6
2019-01-04T00:36:43.926Z,927.58
2019-01-04T00:36:56.896Z,927.58
2019-01-04T00:37:09.905Z,927.58
2019-01-04T00:37:22.830Z,927.57
2019-01-04T00:37:35.881Z,927.54
2019-01-04T00:37:48.911Z,927.54
2019-01-04T00:38:01.850Z,927.53
2019-01-04T00:38:14.391Z,927.53
2019-01-04T00:38:27.390Z,927.53
2019-01-04T00:38:40.371Z,927.52
2019-01-04T00:38:53.330Z,927.51
2019-01-04T00:39:06.276Z,927.51
2019-01-04T00:39:19.348Z,927.48
2019-01-04T00:39:33.063Z,927.48
2019-01-04T00:39:46.130Z,927.49
2019-01-04T00:39:59.145Z,927.46
2019-01-04T00:40:12.162Z,927.4
2019-01-04T00:40:25.092Z,927.43
2019-01-04T00:40:38.121Z,927.44
2019-01-04T00:40:51.154Z,927.41
2019-01-04T00:41:04.157Z,927.41
2019-01-04T00:41:17.113Z,927.41
2019-01-04T00:41:30.092Z,927.42
2019-01-04T00:41:43.131Z,927.41
2019-01-04T00:41:56.096Z,927.38
2019-01-04T00:42:09.143Z,927.41
2019-01-04T00:42:22.127Z,927.38
2019-01-04T00:42:35.121Z,927.39
2019-01-04T00:42:48.104Z,927.38
2019-01-04T00:43:01.118Z,927.38
2019-01-04T00:43:14.099Z,927.36
2019-01-04T00:43:27.095Z,927.37
2019-01-04T00:43:40.064Z,927.34
2019-01-04T00:43:53.082Z,927.34
2019-01-04T00:44:06.005Z,927.35
2019-01-04T00:44:19.008Z,927.38
2019-01-04T00:44:31.962Z,927.34
2019-01-04T00:44:44.540Z,927.39
2019-01-04T00:44:57.577Z,927.4
2019-01-04T00:45:10.559Z,927.39
2019-01-04T00:45:23.474Z,927.39
2019-01-04T00:45:36.423Z,927.37
2019-01-04T00:45:49.423Z,927.4
2019-01-04T00:46:02.361Z,927.36
2019-01-04T00:46:15.378Z,927.38
2019-01-04T00:46:28.369Z,927.36
2019-01-04T00:46:41.316Z,927.37
2019-01-04T00:46:54.265Z,927.38
2019-01-04T00:47:07.275Z,927.37
2019-01-04T00:47:20.217Z,927.4
2019-01-04T00:47:33.210Z,927.37
2019-01-04T00:47:46.234Z,927.36
2019-01-04T00:47:59.209Z,927.38
2019-01-04T00:48:12.209Z,927.37
2019-01-04T00:48:25.196Z,927.41
2019-01-04T00:48:38.933Z,927.42
2019-01-04T00:48:51.967Z,927.37
2019-01-04T00:49:04.953Z,927.37
2019-01-04T00:49:17.959Z,927.38
2019-01-04T00:49:30.935Z,927.41
2019-01-04T00:49:43.940Z,927.37
2019-01-04T00:49:56.940Z,927.43
2019-01-04T00:50:09.922Z,927.38
2019-01-04T00:50:22.953Z,927.44
2019-01-04T00:50:36.001Z,927.42
2019-01-04T00:50:48.999Z,927.44
2019-01-04T00:51:02.022Z,927.39
2019-01-04T00:51:15.023Z,927.43
2019-01-04T00:51:28.012Z,927.42
2019-01-04T00:51:40.985Z,927.4
2019-01-04T00:51:53.998Z,927.37
2019-01-04T00:52:06.966Z,927.38
2019-01-04T00:52:19.986Z,927.36
2019-01-04T00:52:32.964Z,927.4
2019-01-04T00:52:45.941Z,927.39
2019-01-04T00:52:58.909Z,927.39
2019-01-04T00:53:11.462Z,927.38
2019-01-04T00:53:24.420Z,927.4
2019-01-04T00:53:37.395Z,927.36
2019-01-04T00:53:50.380Z,927.38
2019-01-04T00:54:03.380Z,927.35
2019-01-04T00:54:16.390Z,927.37
2019-01-04T00:54:29.379Z,927.39
2019-01-04T00:54:42.417Z,927.35
2019-01-04T00:54:55.486Z,927.37
2019-01-04T00:55:08.467Z,927.37
2019-01-04T00:55:21.400Z,927.38
2019-01-04T00:55:34.370Z,927.39
2019-01-04T00:55:47.364Z,927.38
2019-01-04T00:56:00.352Z,927.35
2019-01-04T00:56:13.375Z,927.35
2019-01-04T00:56:26.342Z,927.38
2019-01-04T00:56:39.342Z,927.35
2019-01-04T00:56:52.355Z,927.4
2019-01-04T00:57:05.350Z,927.37
2019-01-04T00:57:18.304Z,927.35
2019-01-04T00:57:31.351Z,927.36
2019-01-04T00:57:44.329Z,927.36
2019-01-04T00:57:56.880Z,927.36
2019-01-04T00:58:09.899Z,927.36
2019-01-04T00:58:22.984Z,927.36
2019-01-04T00:58:35.986Z,927.35
2019-01-04T00:58:48.803Z,927.37
2019-01-04T00:59:01.780Z,927.41
2019-01-04T00:59:14.844Z,927.37
2019-01-04T00:59:27.885Z,927.37
2019-01-04T00:59:40.835Z,927.39
2019-01-04T00:59:53.826Z,927.4
2019-01-04T01:00:06.799Z,927.37
2019-01-04T01:00:19.819Z,927.38
2019-01-04T01:00:32.874Z,927.42
2019-01-04T01:00:45.959Z,927.41
2019-01-04T01:00:58.973Z,927.4
2019-01-04T01:01:11.944Z,927.4
2019-01-04T01:01:24.489Z,927.43
2019-01-04T01:01:37.492Z,927.41
2019-01-04T01:01:50.508Z,927.42
2019-01-04T01:02:03.513Z,927.42
2019-01-04T01:02:16.500Z,927.44
2019-01-04T01:02:29.546Z,927.43
2019-01-04T01:02:42.612Z,927.44
2019-01-04T01:02:55.613Z,927.46
2019-01-04T01:03:08.579Z,927.47
2019-01-04T01:03:21.530Z,927.44
2019-01-04T01:03:34.502Z,927.49
2019-01-04T01:03:47.884Z,927.5
2019-01-04T01:04:00.867Z,927.51
2019-01-04T01:04:13.876Z,927.49
2019-01-04T01:04:26.898Z,927.47
2019-01-04T01:04:39.920Z,927.52
2019-01-04T01:04:52.930Z,927.46
2019-01-04T01:05:05.910Z,927.49
2019-01-04T01:05:18.922Z,927.5
2019-01-04T01:05:31.857Z,927.49
2019-01-04T01:05:44.923Z,927.49
2019-01-04T01:05:57.924Z,927.47
2019-01-04T01:06:10.906Z,927.49
2019-01-04T01:06:23.896Z,927.46
2019-01-04T01:06:36.874Z,927.45
2019-01-04T01:06:49.863Z,927.46
2019-01-04T01:07:02.852Z,927.46
2019-01-04T01:07:16.140Z,927.5
2019-01-04T01:07:29.126Z,927.47
2019-01-04T01:07:42.144Z,927.47
2019-01-04T01:07:55.136Z,927.49
2019-01-04T01:08:08.096Z,927.48
2019-01-04T01:08:21.070Z,927.45
2019-01-04T01:08:34.045Z,927.47
2019-01-04T01:08:47.041Z,927.46
2019-01-04T01:09:00.076Z,927.48
2019-01-04T01:09:13.144Z,927.46
2019-01-04T01:09:26.191Z,927.47
2019-01-04T01:09:38.678Z,927.48
2019-01-04T01:09:51.634Z,927.49
2019-01-04T01:10:04.670Z,927.45
2019-01-04T01:10:17.700Z,927.44
2019-01-04T01:10:30.744Z,927.45
2019-01-04T01:10:43.723Z,927.49
2019-01-04T01:10:56.680Z,927.46
2019-01-04T01:11:09.693Z,927.46
2019-01-04T01:11:22.706Z,927.42
2019-01-04T01:11:35.645Z,927.43
2019-01-04T01:11:48.676Z,927.44
2019-01-04T01:12:01.651Z,927.43
2019-01-04T01:12:14.631Z,927.46
2019-01-04T01:12:27.593Z,927.44
2019-01-04T01:12:40.591Z,927.43
2019-01-04T01:12:53.611Z,927.42
2019-01-04T01:13:06.616Z,927.43
2019-01-04T01:13:19.617Z,927.42
2019-01-04T01:13:32.660Z,927.4
2019-01-04T01:13:45.696Z,927.39
2019-01-04T01:13:58.713Z,927.42
2019-01-04T01:14:11.678Z,927.4
2019-01-04T01:14:24.711Z,927.42
2019-01-04T01:14:37.696Z,927.4
2019-01-04T01:14:50.654Z,927.4
2019-01-04T01:15:03.685Z,927.44
2019-01-04T01:15:16.631Z,927.43
2019-01-04T01:15:29.589Z,927.43
2019-01-04T01:15:42.612Z,927.45
2019-01-04T01:15:55.545Z,927.44
2019-01-04T01:16:08.486Z,927.41
2019-01-04T01:16:21.450Z,927.44
2019-01-04T01:16:34.383Z,927.44
2019-01-04T01:16:47.378Z,927.43
2019-01-04T01:16:59.922Z,927.42
2019-01-04T01:17:12.921Z,927.43
2019-01-04T01:17:25.911Z,927.4
2019-01-04T01:17:38.909Z,927.41
2019-01-04T01:17:51.971Z,927.44
2019-01-04T01:18:04.544Z,927.4
2019-01-04T01:18:17.552Z,927.45
2019-01-04T01:18:30.485Z,927.42
2019-01-04T01:18:43.449Z,927.41
2019-01-04T01:18:56.680Z,927.42
2019-01-04T01:19:09.651Z,927.44
2019-01-04T01:19:22.675Z,927.42
2019-01-04T01:19:35.682Z,927.42
2019-01-04T01:19:48.676Z,927.42
2019-01-04T01:20:01.640Z,927.44
2019-01-04T01:20:14.636Z,927.46
2019-01-04T01:20:27.640Z,927.42
2019-01-04T01:20:40.687Z,927.44
2019-01-04T01:20:53.715Z,927.43
2019-01-04T01:21:06.698Z,927.43
2019-01-04T01:21:19.648Z,927.44
2019-01-04T01:21:32.632Z,927.44
2019-01-04T01:21:45.633Z,927.43
2019-01-04T01:21:58.605Z,927.46
2019-01-04T01:22:11.563Z,927.4
2019-01-04T01:22:24.504Z,927.43
2019-01-04T01:22:37.515Z,927.43
2019-01-04T01:22:50.481Z,927.46
2019-01-04T01:23:03.500Z,927.48
2019-01-04T01:23:16.484Z,927.5
2019-01-04T01:23:29.450Z,927.46
2019-01-04T01:23:42.546Z,927.51
2019-01-04T01:23:55.525Z,927.49
2019-01-04T01:24:08.540Z,927.46
2019-01-04T01:24:21.548Z,927.49
2019-01-04T01:24:34.556Z,927.5
2019-01-04T01:24:47.602Z,927.5
2019-01-04T01:25:00.591Z,927.49
2019-01-04T01:25:13.572Z,927.51
2019-01-04T01:25:26.533Z,927.51
2019-01-04T01:25:39.504Z,927.51
2019-01-04T01:25:52.493Z,927.47
2019-01-04T01:26:05.503Z,927.46
2019-01-04T01:26:18.517Z,927.47
2019-01-04T01:26:31.536Z,927.45
2019-01-04T01:26:44.492Z,927.46
2019-01-04T01:26:57.447Z,927.46
2019-01-04T01:27:10.391Z,927.46
2019-01-04T01:27:23.361Z,927.45
2019-01-04T01:27:36.287Z,927.44
2019-01-04T01:27:49.315Z,927.45
2019-01-04T01:28:02.380Z,927.44
2019-01-04T01:28:15.441Z,927.41
2019-01-04T01:28:28.505Z,927.43
2019-01-04T01:28:41.496Z,927.4
2019-01-04T01:28:54.501Z,927.42
2019-01-04T01:29:07.512Z,927.42
2019-01-04T01:29:20.481Z,927.38
2019-01-04T01:29:33.422Z,927.4
2019-01-04T01:29:46.421Z,927.42
2019-01-04T01:29:59.393Z,927.39
2019-01-04T01:30:12.438Z,927.39
2019-01-04T01:30:25.438Z,927.36
2019-01-04T01:30:38.413Z,927.38
2019-01-04T01:30:51.445Z,927.38
2019-01-04T01:31:04.369Z,927.36
2019-01-04T01:31:17.422Z,927.38
2019-01-04T01:31:30.406Z,927.34
2019-01-04T01:31:43.337Z,927.35
2019-01-04T01:31:56.342Z,927.36
2019-01-04T01:32:09.316Z,927.41
2019-01-04T01:32:22.340Z,927.4
2019-01-04T01:32:35.326Z,927.36
2019-01-04T01:32:48.332Z,927.36
2019-01-04T01:33:01.376Z,927.37
2019-01-04T01:33:14.340Z,927.39
2019-01-04T01:33:27.347Z,927.37
2019-01-04T01:33:40.314Z,927.37
2019-01-04T01:33:54.066Z,927.34
2019-01-04T01:34:07.074Z,927.32
2019-01-04T01:34:20.063Z,927.33
2019-01-04T01:34:32.583Z,927.32
2019-01-04T01:34:45.593Z,927.33
2019-01-04T01:34:58.625Z,927.29
2019-01-04T01:35:11.608Z,927.3
2019-01-04T01:35:24.623Z,927.31
2019-01-04T01:35:37.655Z,927.29
2019-01-04T01:35:50.635Z,927.29
2019-01-04T01:36:03.627Z,927.32
2019-01-04T01:36:16.625Z,927.33
2019-01-04T01:36:29.557Z,927.31
2019-01-04T01:36:42.517Z,927.3
2019-01-04T01:36:55.477Z,927.3
2019-01-04T01:37:08.432Z,927.3
2019-01-04T01:37:21.399Z,927.29
2019-01-04T01:37:34.434Z,927.27
2019-01-04T01:37:47.427Z,927.29
2019-01-04T01:38:00.421Z,927.27
2019-01-04T01:38:13.440Z,927.29
2019-01-04T01:38:26.481Z,927.29
2019-01-04T01:38:39.495Z,927.28
2019-01-04T01:38:52.453Z,927.25
2019-01-04T01:39:05.457Z,927.25
2019-01-04T01:39:18.395Z,927.28
2019-01-04T01:39:31.406Z,927.27
2019-01-04T01:39:43.893Z,927.25
2019-01-04T01:39:56.927Z,927.27
2019-01-04T01:40:09.934Z,927.28
2019-01-04T01:40:22.927Z,927.23
2019-01-04T01:40:35.930Z,927.21
2019-01-04T01:40:48.919Z,927.24
2019-01-04T01:41:01.948Z,927.26
2019-01-04T01:41:15.007Z,927.25
2019-01-04T01:41:28.055Z,927.25
2019-01-04T01:41:41.008Z,927.25
2019-01-04T01:41:53.958Z,927.27
2019-01-04T01:42:06.940Z,927.25
2019-01-04T01:42:19.921Z,927.23
2019-01-04T01:42:32.914Z,927.26
2019-01-04T01:42:45.856Z,927.28
2019-01-04T01:42:58.833Z,927.27
2019-01-04T01:43:11.826Z,927.22
2019-01-04T01:43:24.868Z,927.29
2019-01-04T01:43:37.859Z,927.29
2019-01-04T01:43:50.780Z,927.29
2019-01-04T01:44:03.719Z,927.26
2019-01-04T01:44:16.633Z,927.26
2019-01-04T01:44:29.611Z,927.31
2019-01-04T01:44:42.572Z,927.24
2019-01-04T01:44:55.549Z,927.27
2019-01-04T01:45:08.575Z,927.23
2019-01-04T01:45:21.494Z,927.17
2019-01-04T01:45:34.548Z,927.2
2019-01-04T01:45:47.560Z,927.19
2019-01-04T01:46:00.517Z,927.21
2019-01-04T01:46:13.052Z,927.23
2019-01-04T01:46:25.999Z,927.24
2019-01-04T01:46:39.017Z,927.21
2019-01-04T01:46:51.980Z,927.2
2019-01-04T01:47:04.952Z,927.2
2019-01-04T01:47:17.924Z,927.22
2019-01-04T01:47:30.979Z,927.19
2019-01-04T01:47:43.927Z,927.16
2019-01-04T01:47:56.882Z,927.19
2019-01-04T01:48:09.843Z,927.21
2019-01-04T01:48:22.830Z,927.17
2019-01-04T01:48:35.822Z,927.22
2019-01-04T01:48:48.813Z,927.21
2019-01-04T01:49:02.527Z,927.2
2019-01-04T01:49:15.522Z,927.23
2019-01-04T01:49:28.483Z,927.18
2019-01-04T01:49:41.529Z,927.18
2019-01-04T01:49:54.551Z,927.2
2019-01-04T01:50:07.535Z,927.16
2019-01-04T01:50:20.565Z,927.15
2019-01-04T01:50:33.606Z,927.15
2019-01-04T01:50:46.603Z,927.17
2019-01-04T01:50:59.643Z,927.17
2019-01-04T01:51:12.671Z,927.2
2019-01-04T01:51:25.655Z,927.17
2019-01-04T01:51:38.604Z,927.21
2019-01-04T01:51:51.615Z,927.17
2019-01-04T01:52:04.609Z,927.16
2019-01-04T01:52:17.637Z,927.1
2019-01-04T01:52:30.632Z,927.15
2019-01-04T01:52:43.669Z,927.21
2019-01-04T01:52:56.659Z,927.17
2019-01-04T01:53:09.665Z,927.15
2019-01-04T01:53:22.658Z,927.18
2019-01-04T01:53:35.662Z,927.12
2019-01-04T01:53:48.229Z,927.15
2019-01-04T01:54:01.258Z,927.17
2019-01-04T01:54:14.266Z,927.15
2019-01-04T01:54:26.817Z,927.11
2019-01-04T01:54:39.818Z,927.19
2019-01-04T01:54:52.858Z,927.15
2019-01-04T01:55:05.877Z,927.15
2019-01-04T01:55:18.906Z,927.08
2019-01-04T01:55:31.887Z,927.14
2019-01-04T01:55:44.860Z,927.19
2019-01-04T01:55:57.854Z,927.14
2019-01-04T01:56:10.403Z,927.14
2019-01-04T01:56:23.477Z,927.15
2019-01-04T01:56:36.511Z,927.17
2019-01-04T01:56:49.568Z,927.16
2019-01-04T01:57:02.541Z,927.14
2019-01-04T01:57:15.537Z,927.16
2019-01-04T01:57:28.553Z,927.14
2019-01-04T01:57:41.059Z,927.14
2019-01-04T01:57:53.645Z,927.16
2019-01-04T01:58:06.645Z,927.13
2019-01-04T01:58:19.163Z,927.16
2019-01-04T01:58:32.181Z,927.2
2019-01-04T01:58:45.197Z,927.15
2019-01-04T01:58:58.462Z,927.15
2019-01-04T01:59:11.387Z,927.16
2019-01-04T01:59:24.370Z,927.12
2019-01-04T01:59:37.286Z,927.18
2019-01-04T01:59:50.269Z,927.12
2019-01-04T02:00:03.282Z,927.16
2019-01-04T02:00:16.260Z,927.15
2019-01-04T02:00:29.318Z,927.12
2019-01-04T02:00:42.354Z,927.15
2019-01-04T02:00:55.341Z,927.19
2019-01-04T02:01:08.287Z,927.21
2019-01-04T02:01:21.325Z,927.17
2019-01-04T02:01:33.902Z,927.18
2019-01-04T02:01:46.904Z,927.25
2019-01-04T02:01:59.941Z,927.15
2019-01-04T02:02:12.957Z,927.21
2019-01-04T02:02:25.953Z,927.22
2019-01-04T02:02:38.993Z,927.24
2019-01-04T02:02:51.992Z,927.28
2019-01-04T02:03:04.964Z,927.28
2019-01-04T02:03:18.025Z,927.3
2019-01-04T02:03:31.002Z,927.28
2019-01-04T02:03:43.937Z,927.31
2019-01-04T02:03:56.936Z,927.34
2019-01-04T02:04:10.556Z,927.29
2019-01-04T02:04:23.533Z,927.33
2019-01-04T02:04:36.554Z,927.32
2019-01-04T02:04:49.462Z,927.34
2019-01-04T02:05:02.460Z,927.36
2019-01-04T02:05:15.517Z,927.39
2019-01-04T02:05:28.491Z,927.38
2019-01-04T02:05:41.507Z,927.36
2019-01-04T02:05:54.521Z,927.36
2019-01-04T02:06:07.463Z,927.34
2019-01-04T02:06:20.456Z,927.36
2019-01-04T02:06:33.481Z,927.38
2019-01-04T02:06:46.438Z,927.38
2019-01-04T02:06:59.477Z,927.31
2019-01-04T02:07:12.496Z,927.37
2019-01-04T02:07:25.453Z,927.38
2019-01-04T02:07:37.923Z,927.35
2019-01-04T02:07:50.910Z,927.32
2019-01-04T02:08:03.855Z,927.36
2019-01-04T02:08:16.835Z,927.36
2019-01-04T02:08:29.781Z,927.31
2019-01-04T02:08:42.741Z,927.35
2019-01-04T02:08:55.738Z,927.36
2019-01-04T02:09:14.505Z,927.36
2019-01-04T02:09:27.475Z,927.38
2019-01-04T02:09:40.482Z,927.31
2019-01-04T02:09:53.491Z,927.35
2019-01-04T02:10:06.497Z,927.32
2019-01-04T02:10:19.481Z,927.32
2019-01-04T02:10:32.452Z,927.32
2019-01-04T02:10:45.406Z,927.29
2019-01-04T02:10:58.417Z,927.28
2019-01-04T02:11:11.396Z,927.31
2019-01-04T02:11:24.384Z,927.33
2019-01-04T02:11:37.358Z,927.33
2019-01-04T02:11:50.317Z,927.3
2019-01-04T02:12:03.321Z,927.32
2019-01-04T02:12:16.356Z,927.3
2019-01-04T02:12:29.306Z,927.33
2019-01-04T02:12:42.292Z,927.31
2019-01-04T02:12:55.305Z,927.31
2019-01-04T02:13:08.322Z,927.28
2019-01-04T02:13:21.313Z,927.31
2019-01-04T02:13:33.898Z,927.28
2019-01-04T02:13:46.929Z,927.3
2019-01-04T02:13:59.899Z,927.26
2019-01-04T02:14:12.848Z,927.27
2019-01-04T02:14:25.779Z,927.29
2019-01-04T02:14:38.719Z,927.29
2019-01-04T02:14:51.709Z,927.26
2019-01-04T02:15:04.757Z,927.31
2019-01-04T02:15:17.744Z,927.25
2019-01-04T02:15:30.764Z,927.28
2019-01-04T02:15:43.711Z,927.26
2019-01-04T02:15:56.750Z,927.3
2019-01-04T02:16:09.761Z,927.24
2019-01-04T02:16:22.790Z,927.28
2019-01-04T02:16:35.770Z,927.23
2019-01-04T02:16:48.863Z,927.21
2019-01-04T02:17:01.870Z,927.23
2019-01-04T02:17:14.895Z,927.21
2019-01-04T02:17:27.943Z,927.2
2019-01-04T02:17:40.939Z,927.2
2019-01-04T02:17:53.540Z,927.18
2019-01-04T02:18:06.524Z,927.19
2019-01-04T02:18:19.451Z,927.18
2019-01-04T02:18:32.459Z,927.16
2019-01-04T02:18:45.480Z,927.19
2019-01-04T02:18:58.486Z,927.17
2019-01-04T02:19:12.288Z,927.18
2019-01-04T02:19:25.347Z,927.17
2019-01-04T02:19:38.381Z,927.17
2019-01-04T02:19:51.378Z,927.18
2019-01-04T02:20:04.356Z,927.14
2019-01-04T02:20:16.905Z,927.17
2019-01-04T02:20:29.835Z,927.16
2019-01-04T02:20:42.798Z,927.15
2019-01-04T02:20:55.817Z,927.16
2019-01-04T02:21:08.782Z,927.12
2019-01-04T02:21:21.752Z,927.13
2019-01-04T02:21:34.745Z,927.16
2019-01-04T02:21:47.727Z,927.13
2019-01-04T02:22:00.706Z,927.13
2019-01-04T02:22:13.735Z,927.13
2019-01-04T02:22:26.746Z,927.11
2019-01-04T02:22:39.735Z,927.1
2019-01-04T02:22:52.753Z,927.1
2019-01-04T02:23:05.807Z,927.09
2019-01-04T02:23:18.826Z,927.1
2019-01-04T02:23:31.781Z,927.09
2019-01-04T02:23:44.727Z,927.1
2019-01-04T02:23:57.778Z,927.08
2019-01-04T02:24:10.734Z,927.09
2019-01-04T02:24:23.725Z,927.14
2019-01-04T02:24:36.714Z,927.13
2019-01-04T02:24:49.742Z,927.14
2019-01-04T02:25:02.761Z,927.11
2019-01-04T02:25:15.734Z,927.14
2019-01-04T02:25:28.714Z,927.1
2019-01-04T02:25:41.702Z,927.12
2019-01-04T02:25:54.646Z,927.12
2019-01-04T02:26:07.626Z,927.07
2019-01-04T02:26:20.654Z,927.1
2019-01-04T02:26:33.689Z,927.12
2019-01-04T02:26:46.668Z,927.12
2019-01-04T02:26:59.610Z,927.1
2019-01-04T02:27:12.600Z,927.15
2019-01-04T02:27:25.523Z,927.19
2019-01-04T02:27:38.562Z,927.17
2019-01-04T02:27:51.606Z,927.14
2019-01-04T02:28:04.553Z,927.14
2019-01-04T02:28:17.523Z,927.12
2019-01-04T02:28:30.524Z,927.1
2019-01-04T02:28:43.480Z,927.13
2019-01-04T02:28:56.432Z,927.11
2019-01-04T02:29:09.726Z,927.12
2019-01-04T02:29:22.760Z,927.15
2019-01-04T02:29:35.765Z,927.13
2019-01-04T02:29:48.708Z,927.15
2019-01-04T02:30:01.816Z,927.13
2019-01-04T02:30:14.884Z,927.14
2019-01-04T02:30:27.832Z,927.14
2019-01-04T02:30:40.828Z,927.13
2019-01-04T02:30:53.858Z,927.1
2019-01-04T02:31:06.772Z,927.11
2019-01-04T02:31:19.797Z,927.11
2019-01-04T02:31:32.813Z,927.1
2019-01-04T02:31:45.873Z,927.12
2019-01-04T02:31:58.872Z,927.08
2019-01-04T02:32:11.842Z,927.1
2019-01-04T02:32:24.815Z,927.08
2019-01-04T02:32:37.821Z,927.07
2019-01-04T02:32:50.814Z,927.08
2019-01-04T02:33:03.854Z,927.08
2019-01-04T02:33:16.883Z,927.05
2019-01-04T02:33:29.926Z,927.06
2019-01-04T02:33:42.981Z,927.04
2019-01-04T02:33:55.969Z,927.08
2019-01-04T02:34:08.987Z,927.06
2019-01-04T02:34:22.696Z,927.05
2019-01-04T02:34:35.684Z,927.01
2019-01-04T02:34:48.685Z,927.02
2019-01-04T02:35:01.791Z,927.01
2019-01-04T02:35:14.801Z,927.03
2019-01-04T02:35:27.341Z,927.01
2019-01-04T02:35:40.314Z,927.03
2019-01-04T02:35:53.254Z,927.02
2019-01-04T02:36:06.291Z,927.03
2019-01-04T02:36:19.278Z,927.02
2019-01-04T02:36:32.274Z,927.02
2019-01-04T02:36:45.314Z,926.98
2019-01-04T02:36:58.313Z,927.02
2019-01-04T02:37:11.346Z,927.01
2019-01-04T02:37:24.353Z,927.02
2019-01-04T02:37:37.314Z,927
2019-01-04T02:37:50.303Z,927.02
2019-01-04T02:38:03.381Z,927.01
2019-01-04T02:38:15.870Z,927.02
2019-01-04T02:38:28.409Z,926.99
2019-01-04T02:38:40.972Z,926.98
2019-01-04T02:38:53.953Z,926.99
2019-01-04T02:39:06.972Z,927.02
2019-01-04T02:39:19.941Z,926.96
2019-01-04T02:39:32.923Z,926.95
2019-01-04T02:39:45.939Z,926.94
2019-01-04T02:39:58.919Z,926.92
2019-01-04T02:40:11.948Z,926.94
2019-01-04T02:40:24.903Z,926.95
2019-01-04T02:40:37.887Z,926.96
2019-01-04T02:40:50.898Z,926.91
2019-01-04T02:41:03.903Z,926.92
2019-01-04T02:41:16.868Z,926.91
2019-01-04T02:41:29.854Z,926.9
2019-01-04T02:41:42.441Z,926.88
2019-01-04T02:41:55.398Z,926.9
2019-01-04T02:42:08.425Z,926.9
2019-01-04T02:42:21.414Z,926.84
2019-01-04T02:42:34.523Z,926.87
2019-01-04T02:42:47.478Z,926.85